TimeMDT,TemperatureF,Dew PointF,Humidity,Sea Level PressureIn,VisibilityMPH,Wind Direction,Wind SpeedMPH,Gust SpeedMPH,PrecipitationIn,Events,Conditions,WindDirDegrees,DateUTC
12:15 AM,28.0,-13.9,16,30.06,10.0,North,8.1,-,N/A,,Clear,360,2013-03-24 06:15:00
12:35 AM,25.7,-13.2,18,30.06,10.0,North,6.9,-,N/A,,Clear,10,2013-03-24 06:35:00
12:55 AM,26.6,-13.7,17,30.07,10.0,Calm,Calm,-,N/A,,Clear,0,2013-03-24 06:55:00
1:15 AM,26.1,-12.3,18,30.07,10.0,NW,6.9,-,N/A,,Clear,320,2013-03-24 07:15:00
1:35 AM,25.0,-11.0,20,30.07,10.0,West,4.6,-,N/A,,Clear,270,2013-03-24 07:35:00
1:55 AM,26.2,-10.8,19,30.06,10.0,West,4.6,-,N/A,,Scattered Clouds,280,2013-03-24 07:55:00
2:15 AM,27.1,-10.1,19,30.06,10.0,West,5.8,-,N/A,,Overcast,260,2013-03-24 08:15:00
2:35 AM,27.7,-9.4,20,30.07,10.0,WSW,6.9,-,N/A,,Overcast,240,2013-03-24 08:35:00
2:55 AM,21.7,1.2,41,30.07,10.0,South,11.5,-,N/A,,Overcast,190,2013-03-24 08:55:00
3:15 AM,21.2,3.0,46,30.07,10.0,South,9.2,-,N/A,,Overcast,190,2013-03-24 09:15:00
3:35 AM,20.7,2.8,46,30.07,10.0,SSW,10.4,-,N/A,,Overcast,200,2013-03-24 09:35:00
3:55 AM,19.8,3.0,48,30.07,10.0,South,12.7,-,N/A,,Overcast,190,2013-03-24 09:55:00
4:15 AM,19.2,2.8,49,30.07,10.0,South,9.2,-,N/A,,Overcast,180,2013-03-24 10:15:00
4:35 AM,17.8,1.8,50,30.07,10.0,South,8.1,-,N/A,,Scattered Clouds,190,2013-03-24 10:35:00
4:55 AM,15.8,1.2,53,30.07,10.0,South,6.9,-,N/A,,Clear,190,2013-03-24 10:55:00
5:15 AM,14.4,-0.0,53,30.08,10.0,SSW,6.9,-,N/A,,Clear,200,2013-03-24 11:15:00
5:35 AM,12.0,-0.8,57,30.08,10.0,SSE,3.5,-,N/A,,Clear,160,2013-03-24 11:35:00
5:55 AM,11.8,-0.8,57,30.09,10.0,South,3.5,-,N/A,,Clear,190,2013-03-24 11:55:00
6:15 AM,11.8,-0.4,58,30.09,10.0,South,3.5,-,N/A,,Clear,180,2013-03-24 12:15:00
6:35 AM,12.0,-0.4,58,30.09,10.0,SSW,3.5,-,N/A,,Clear,210,2013-03-24 12:35:00
6:55 AM,8.6,-2.4,61,30.09,10.0,ENE,3.5,-,N/A,,Clear,70,2013-03-24 12:55:00
7:15 AM,9.7,-0.6,63,30.10,10.0,ENE,3.5,-,N/A,,Clear,60,2013-03-24 13:15:00
7:35 AM,10.6,-0.4,61,30.11,10.0,Calm,Calm,-,N/A,,Clear,0,2013-03-24 13:35:00
7:55 AM,13.3,1.2,59,30.11,10.0,Calm,Calm,-,N/A,,Clear,0,2013-03-24 13:55:00
8:15 AM,16.9,2.3,53,30.11,10.0,Calm,Calm,-,N/A,,Clear,0,2013-03-24 14:15:00
8:35 AM,19.9,3.6,49,30.12,10.0,Calm,Calm,-,N/A,,Clear,0,2013-03-24 14:35:00
8:55 AM,21.9,3.6,45,30.12,10.0,Calm,Calm,-,N/A,,Clear,0,2013-03-24 14:55:00
9:15 AM,23.7,3.9,43,30.11,10.0,Calm,Calm,-,N/A,,Clear,0,2013-03-24 15:15:00
9:35 AM,27.7,2.7,34,30.11,10.0,Calm,Calm,-,N/A,,Clear,0,2013-03-24 15:35:00
9:55 AM,30.6,-1.7,25,30.10,10.0,Calm,Calm,-,N/A,,Clear,0,2013-03-24 15:55:00
10:15 AM,33.1,-4.0,20,30.09,10.0,Calm,Calm,-,N/A,,Clear,0,2013-03-24 16:15:00
10:35 AM,36.1,-4.5,18,30.09,10.0,NNE,3.5,-,N/A,,Clear,30,2013-03-24 16:35:00
10:55 AM,37.9,-6.3,15,30.08,10.0,NW,5.8,-,N/A,,Clear,310,2013-03-24 16:55:00
11:15 AM,38.7,-6.0,15,30.07,10.0,West,8.1,-,N/A,,Clear,270,2013-03-24 17:15:00
11:35 AM,38.7,-6.0,15,30.07,10.0,Calm,Calm,-,N/A,,Clear,0,2013-03-24 17:35:00
11:55 AM,41.2,-5.1,14,30.05,10.0,NNW,11.5,17.3,N/A,,Clear,330,2013-03-24 17:55:00
12:15 PM,41.7,-5.1,14,30.04,10.0,West,5.8,-,N/A,,Clear,270,2013-03-24 18:15:00
12:35 PM,42.6,-5.1,13,30.02,10.0,WNW,10.4,-,N/A,,Clear,300,2013-03-24 18:35:00
12:55 PM,45.7,-4.4,12,30.02,10.0,West,9.2,23.0,N/A,,Clear,260,2013-03-24 18:55:00
1:15 PM,46.2,-3.1,13,30.01,10.0,West,11.5,24.2,N/A,,Clear,280,2013-03-24 19:15:00
1:35 PM,45.0,-4.0,13,30.00,10.0,West,21.9,28.8,N/A,,Clear,260,2013-03-24 19:35:00
1:55 PM,46.2,-4.2,12,29.99,10.0,WNW,17.3,26.5,N/A,,Clear,290,2013-03-24 19:55:00
2:15 PM,46.9,-4.5,12,29.98,10.0,West,18.4,31.1,N/A,,Clear,280,2013-03-24 20:15:00
2:35 PM,46.9,-4.5,12,29.96,10.0,West,20.7,28.8,N/A,,Clear,280,2013-03-24 20:35:00
2:55 PM,47.8,-4.2,11,29.96,10.0,WNW,18.4,31.1,N/A,,Clear,290,2013-03-24 20:55:00
3:15 PM,49.1,-3.5,11,29.95,10.0,West,18.4,32.2,N/A,,Clear,280,2013-03-24 21:15:00
3:35 PM,49.6,-3.5,11,29.94,10.0,West,24.2,33.4,N/A,,Clear,280,2013-03-24 21:35:00
3:55 PM,49.5,-3.5,11,29.94,10.0,West,21.9,26.5,N/A,,Clear,280,2013-03-24 21:55:00
4:15 PM,49.8,-2.9,11,29.93,10.0,WNW,17.3,23.0,N/A,,Clear,300,2013-03-24 22:15:00
4:35 PM,49.8,-3.1,11,29.92,10.0,NW,19.6,28.8,N/A,,Clear,310,2013-03-24 22:35:00
4:55 PM,49.5,-3.1,11,29.92,10.0,WNW,15.0,27.6,N/A,,Clear,290,2013-03-24 22:55:00
5:15 PM,49.1,-2.4,12,29.92,10.0,NW,17.3,26.5,N/A,,Clear,310,2013-03-24 23:15:00
5:35 PM,48.4,-2.6,12,29.92,10.0,NNW,15.0,27.6,N/A,,Clear,340,2013-03-24 23:35:00
5:55 PM,48.0,-2.6,12,29.92,10.0,NW,19.6,28.8,N/A,,Clear,310,2013-03-24 23:55:00
6:15 PM,47.3,-2.7,12,29.92,10.0,NW,17.3,25.3,N/A,,Clear,320,2013-03-25 00:15:00
6:35 PM,46.2,-3.1,13,29.93,10.0,NW,24.2,28.8,N/A,,Clear,320,2013-03-25 00:35:00
6:55 PM,44.6,-4.0,13,29.94,10.0,NW,21.9,28.8,N/A,,Clear,320,2013-03-25 00:55:00
7:15 PM,42.6,-4.2,14,29.95,10.0,NW,19.6,27.6,N/A,,Clear,320,2013-03-25 01:15:00
7:35 PM,41.0,-4.4,15,29.96,10.0,NW,16.1,20.7,N/A,,Clear,320,2013-03-25 01:35:00
7:55 PM,39.6,-4.4,16,29.96,10.0,NW,13.8,20.7,N/A,,Clear,320,2013-03-25 01:55:00
8:15 PM,37.4,-4.9,16,29.98,10.0,NW,10.4,-,N/A,,Clear,320,2013-03-25 02:15:00
8:35 PM,37.8,-4.0,17,29.99,10.0,NNW,13.8,18.4,N/A,,Clear,330,2013-03-25 02:35:00
8:55 PM,37.4,-4.2,17,30.00,10.0,NNW,12.7,-,N/A,,Clear,340,2013-03-25 02:55:00
9:15 PM,36.7,-4.0,18,30.01,10.0,NNW,13.8,-,N/A,,Clear,340,2013-03-25 03:15:00
9:35 PM,35.4,-4.0,19,30.02,10.0,NNW,11.5,-,N/A,,Clear,340,2013-03-25 03:35:00
9:55 PM,38.3,-3.5,17,30.02,10.0,NNW,16.1,-,N/A,,Clear,330,2013-03-25 03:55:00
10:15 PM,37.0,-3.1,18,30.03,10.0,NW,16.1,-,N/A,,Clear,320,2013-03-25 04:15:00
10:35 PM,34.7,-3.1,20,30.04,10.0,NW,12.7,-,N/A,,Clear,320,2013-03-25 04:35:00
10:55 PM,34.9,-3.1,20,30.05,10.0,NNW,16.1,21.9,N/A,,Clear,330,2013-03-25 04:55:00
11:15 PM,36.0,-3.1,19,30.06,10.0,NNW,19.6,-,N/A,,Clear,330,2013-03-25 05:15:00
11:35 PM,35.2,-3.3,19,30.06,10.0,NNW,15.0,-,N/A,,Clear,330,2013-03-25 05:35:00
11:55 PM,31.3,-0.6,26,30.09,10.0,ENE,13.8,21.9,N/A,,Clear,70,2013-03-25 05:55:00